Terminal Aerodrome Forecast
Issued by NWS Lake Charles, LA

Home | Current Version | Previous Version | Text Only | Print | Product List | Glossary On
Versions: 1 2 3 4 5 6 7 8 9 10 11 12
000
FTUS44 KLCH 201744
TAFLCH
TAF
KLCH 201744Z 2018/2118 11012KT P6SM VCSH SCT035 OVC050
     FM210000 12007KT P6SM SCT060 BKN100
     FM210900 11005KT P6SM BKN025=

USA.gov is the U.S. government's official web portal to all federal, state and local government web resources and services.